Escondido, CA

4:45 AM PDT en Agosto 22, 2014 (GMT -0700)
KCAESCON21 | Change Station
CLOSE
Current Station
Estación meteorológica personal
Location: Escondido, CA
Altura: 646 ft
Estaciones meteorológicas cercanas

Alt 646 ft 33.09 °N, 117.08 °W | Updated 32 seconds ago

Clear
Despejado
64.3 ° F
Sensación térmica 64.3 ° F
N
1.0
Viento Variable Viento desde NE
Gusts 2.0 mph

Hoy
Alta -- | Baja -- ° F
--% Posibilidad de precipitaciones
Ayer
Alta -- | Baja -- ° F
Precip. -- pul
6:16 AM 7:25 PM
Creciente menguante, 9% visible
Presión 29.92 pul
Visibilidad 6.0 Millas
Nubes Despejado
Punto de rocío 62 ° F
Humedad 92%
Precipitaciones 0.00 pul
Espesor de la nieve No disponible.
UV 0 de una escala de 12
Polen 5.20 de una escala de 12
PM2.5 Buena
Flu Activity No disponible.
METAR KRNM 221053Z AUTO 00000KT 6SM BR CLR 15/14 A2996 RMK AO2 SLP131 T01500139 TSNO

More Conditions Fewer Conditions

Presión 29.92 pul
Visibilidad 6.0 Millas
Nubes Despejado
Punto de rocío 62 ° F
Humedad 92%
Precipitaciones 0.00 pul
Espesor de la nieve No disponible.
UV 0 de una escala de 12
Polen 5.20 de una escala de 12
PM2.5 Buena
Flu Activity No disponible.
METAR KRNM 221053Z AUTO 00000KT 6SM BR CLR 15/14 A2996 RMK AO2 SLP131 T01500139 TSNO

More Conditions Fewer Conditions

10-Day Weather Forecast

Almanac

Astronomía

Aug. 22, 2014 Salida Puesta
Hora real 6:16 AM PDT 7:25 PM PDT
Crepúsculo civil 5:50 AM PDT 7:51 PM PDT
Crepúsculo náutico 5:19 AM PDT 8:21 PM PDT
Crepúsculo astronómico 4:48 AM PDT 8:53 PM PDT
Luna 3:46 AM PDT 5:34 PM PDT
Horas de luz 14h 00m
Horas de luz
13h 09m
Tomorrow will be 1m 53s shorter.
Creciente menguante, 9% of the Moon is Illuminated
Hoy
Creciente menguante
Ago 25
Nueva
Sep 2
Cuarto creciente
Sep 8
Luna llena
Sep 15
Cuarto menguante

Extremos de hoy

Máximos del estado Bajos del estado

Community

WunderPhotos

Upload Photos

1,746,151 ¡fotos cargadas!

WunderBlogs® & News

By Dr. Jeff Masters
Director of Meteorology, Weather Underground
By Kari Strenfel
Meteorologist, Weather Underground
By Christopher C. Burt
Weather Historian, Weather Underground
August 22, 2014
August 22, 2014
August 22, 2014

Nearby

Calidad del aire

  Calidad del aire Índice AQ Contaminante
Ayer Buena
PM2.5
Ayer Buena
OZONE
Real Buena
PM2.5
Viernes Buena
PM2.5
Viernes Buena
OZONE

Grosos de nieve

Estación Profundido Altura
Leavitt Lake 1 in 9400 ft
Leavitt Meadows 1 in 7200 ft
Summit Meadow 0 in 9122 ft
Monitor Pass 0 in 8350 ft
Blue Lakes 0 in 8000 ft

Actividad de terremotos

Ciudad Distance Mag. Tiempo y dato
Alberto Oviedo Mota, Mexico 122 Millas 3.5 3:59 PM PDT
2014-08-17
Alberto Oviedo Mota, Mexico 123 Millas 3.2 3:59 PM PDT
2014-08-17
Malibu Beach, California 111 Millas 3.4 10:03 AM PDT
2014-08-15
Magnitud mínima muestra es 2,5.

Temperaturas de aguas costeras

Lugar Temperatura
La Jolla, CA 69.1 ° F
San Diego, CA 73.9 ° F

Estaciones meteorológicas cercanas